Time;durP1;ratioP1;P1;durP2;ratioP2;P2;SDS_P1;SDS_P2;PMS_P1;PMS_P2;Temp;Humidity;BMP_temperature;BMP_pressure;BME280_temperature;BME280_humidity;BME280_pressure;Samples;Min_cycle;Max_cycle;Signal;HPM_P1;HPM_P2
2023/06/15 00:00:48;;;;;;;3.17;1.20;;;18.00;79.30;;;;;;5033035;28;20598;-74
2023/06/15 00:03:14;;;;;;;3.83;1.15;;;18.00;79.50;;;;;;5032885;28;20098;-74
2023/06/15 00:05:40;;;;;;;2.13;1.08;;;17.90;79.80;;;;;;5032742;28;20433;-74
2023/06/15 00:08:06;;;;;;;2.67;0.98;;;17.80;80.20;;;;;;5032343;28;20114;-74
2023/06/15 00:10:31;;;;;;;4.05;1.30;;;17.80;80.50;;;;;;5032836;28;20121;-74
2023/06/15 00:12:57;;;;;;;4.43;1.10;;;17.80;80.80;;;;;;5032581;28;20029;-74
2023/06/15 00:15:23;;;;;;;3.03;1.08;;;17.80;81.10;;;;;;5032449;28;20047;-74
2023/06/15 00:17:49;;;;;;;2.47;1.10;;;17.70;81.40;;;;;;5032515;28;20049;-74
2023/06/15 00:20:14;;;;;;;2.40;1.17;;;17.70;81.80;;;;;;5032507;28;20051;-74
2023/06/15 00:22:41;;;;;;;2.53;1.25;;;17.60;82.00;;;;;;5032447;28;20037;-74
2023/06/15 00:25:10;;;;;;;4.00;1.63;;;17.70;82.20;;;;;;5028915;28;20053;-74
2023/06/15 00:27:36;;;;;;;4.40;1.50;;;17.60;82.50;;;;;;5030398;28;20052;-74
2023/06/15 00:30:04;;;;;;;5.63;1.42;;;17.70;82.60;;;;;;5029178;28;20043;-74
2023/06/15 00:32:30;;;;;;;4.50;1.50;;;17.60;82.80;;;;;;5029394;28;20041;-74
2023/06/15 00:34:56;;;;;;;3.05;1.20;;;17.60;83.00;;;;;;5029210;28;20491;-74
2023/06/15 00:37:21;;;;;;;3.22;1.50;;;17.50;83.10;;;;;;5028775;28;20410;-74
2023/06/15 00:39:47;;;;;;;6.20;1.10;;;17.50;83.30;;;;;;5012565;28;20045;-74
2023/06/15 00:42:12;;;;;;;2.78;1.35;;;17.40;83.50;;;;;;5012848;28;20449;-74
2023/06/15 00:44:38;;;;;;;3.08;1.15;;;17.50;83.70;;;;;;5029154;28;20042;-74
2023/06/15 00:47:04;;;;;;;3.30;1.50;;;17.40;84.00;;;;;;5012486;28;20033;-74
2023/06/15 00:49:32;;;;;;;2.65;1.40;;;17.40;84.20;;;;;;5028998;28;20079;-74
2023/06/15 00:51:58;;;;;;;2.45;1.20;;;17.30;84.30;;;;;;5032414;28;20049;-74
2023/06/15 00:54:24;;;;;;;4.78;1.30;;;17.40;84.40;;;;;;5032776;28;20116;-74
2023/06/15 00:56:51;;;;;;;3.72;1.27;;;17.30;84.60;;;;;;5032938;28;20164;-74
2023/06/15 00:59:17;;;;;;;2.67;1.38;;;17.20;84.90;;;;;;5032550;28;20049;-74
2023/06/15 01:01:44;;;;;;;2.47;1.15;;;17.20;85.10;;;;;;5016433;28;20563;-74
2023/06/15 01:04:10;;;;;;;3.97;1.38;;;17.10;85.30;;;;;;5032868;28;20045;-74
2023/06/15 01:06:41;;;;;;;4.47;1.10;;;17.10;85.70;;;;;;5015899;28;20049;-74
2023/06/15 01:09:09;;;;;;;2.60;1.25;;;17.00;85.90;;;;;;5032421;28;20034;-74
2023/06/15 01:11:35;;;;;;;4.82;1.85;;;17.00;86.20;;;;;;5032712;28;20048;-74
2023/06/15 01:14:03;;;;;;;2.92;1.30;;;17.00;86.40;;;;;;5032512;28;20080;-74
2023/06/15 01:16:40;;;;;;;2.20;1.15;;;17.00;86.50;;;;;;5016160;28;20471;-74
2023/06/15 01:19:16;;;;;;;3.35;1.55;;;16.90;86.80;;;;;;5032171;28;20141;-74
2023/06/15 01:21:43;;;;;;;2.65;1.30;;;16.90;86.70;;;;;;5016096;28;20560;-74
2023/06/15 01:24:23;;;;;;;2.78;1.20;;;16.80;86.80;;;;;;5032117;28;20140;-74
2023/06/15 01:26:50;;;;;;;3.72;1.88;;;16.70;87.80;;;;;;5032329;28;20057;-74
2023/06/15 01:29:19;;;;;;;3.85;1.60;;;16.70;87.40;;;;;;5015310;28;20071;-74
2023/06/15 01:31:46;;;;;;;2.63;1.33;;;16.60;87.50;;;;;;5033653;28;20037;-74
2023/06/15 01:34:12;;;;;;;3.42;1.88;;;16.70;87.70;;;;;;5032306;28;20083;-74
2023/06/15 01:36:37;;;;;;;5.35;1.60;;;16.70;87.70;;;;;;5032204;28;20047;-74
2023/06/15 01:39:03;;;;;;;4.10;1.80;;;16.60;87.80;;;;;;5031942;28;20033;-74
2023/06/15 01:41:31;;;;;;;3.72;1.50;;;16.60;87.90;;;;;;5031887;28;20396;-74
2023/06/15 01:43:58;;;;;;;3.22;1.30;;;16.60;88.20;;;;;;5031886;28;20426;-74
2023/06/15 01:46:25;;;;;;;3.03;1.52;;;16.50;88.50;;;;;;5015535;28;20541;-74
2023/06/15 01:48:53;;;;;;;2.63;1.40;;;16.50;88.90;;;;;;5032020;28;20042;-74
2023/06/15 01:51:20;;;;;;;2.97;1.40;;;16.40;89.20;;;;;;5031717;28;20041;-74
2023/06/15 01:53:46;;;;;;;4.10;1.65;;;16.40;89.40;;;;;;5031807;28;20035;-74
2023/06/15 01:56:13;;;;;;;2.83;1.30;;;16.50;89.60;;;;;;5015425;28;20144;-74
2023/06/15 01:58:39;;;;;;;2.53;1.60;;;16.40;89.80;;;;;;5031646;28;20491;-74
2023/06/15 02:01:05;;;;;;;3.40;1.40;;;16.40;90.00;;;;;;5031134;28;20053;-74
2023/06/15 02:03:31;;;;;;;2.42;1.33;;;16.40;90.00;;;;;;5031487;28;20040;-74
2023/06/15 02:05:57;;;;;;;2.97;1.45;;;16.30;90.10;;;;;;5031533;28;20041;-74
2023/06/15 02:08:22;;;;;;;4.55;1.50;;;16.30;90.20;;;;;;5031526;28;20045;-73
2023/06/15 02:10:48;;;;;;;6.13;1.75;;;16.30;90.30;;;;;;5031388;28;20046;-74
2023/06/15 02:13:14;;;;;;;3.03;1.50;;;16.20;90.30;;;;;;5031450;28;20045;-73
2023/06/15 02:15:39;;;;;;;2.80;1.50;;;16.30;90.50;;;;;;5031338;28;20091;-73
2023/06/15 02:18:12;;;;;;;3.25;1.60;;;16.30;90.60;;;;;;5032692;28;20223;-74
2023/06/15 02:20:42;;;;;;;4.03;1.48;;;16.20;90.70;;;;;;5031255;28;20030;-74
2023/06/15 02:23:08;;;;;;;3.28;1.30;;;16.20;90.90;;;;;;5014772;28;20041;-74
2023/06/15 02:25:34;;;;;;;3.15;1.55;;;16.10;90.90;;;;;;5014189;28;20063;-74
2023/06/15 02:27:59;;;;;;;2.75;1.35;;;16.10;90.90;;;;;;5031013;28;20045;-74
2023/06/15 02:30:26;;;;;;;3.33;1.45;;;16.10;90.80;;;;;;5030914;28;20064;-74
2023/06/15 02:32:53;;;;;;;2.50;1.15;;;16.00;90.70;;;;;;5031072;28;20037;-74
2023/06/15 02:35:19;;;;;;;2.70;1.48;;;16.00;90.80;;;;;;5014834;28;20137;-74
2023/06/15 02:37:45;;;;;;;2.60;1.45;;;15.90;90.90;;;;;;5014692;28;20099;-74
2023/06/15 02:40:11;;;;;;;2.60;1.40;;;15.90;91.00;;;;;;5014491;28;20045;-74
2023/06/15 02:42:38;;;;;;;3.33;1.60;;;15.80;91.00;;;;;;5030691;28;20052;-73
2023/06/15 02:45:06;;;;;;;2.80;1.52;;;15.90;91.00;;;;;;5030845;28;20081;-73
2023/06/15 02:47:36;;;;;;;2.10;1.10;;;15.90;91.10;;;;;;5014064;28;20033;-73
2023/06/15 02:50:05;;;;;;;3.20;1.75;;;15.80;91.10;;;;;;5030664;28;20035;-73
2023/06/15 02:52:31;;;;;;;3.08;1.20;;;15.80;91.20;;;;;;5030548;28;20045;-73
2023/06/15 02:54:58;;;;;;;5.57;1.70;;;15.80;91.20;;;;;;5014423;28;20321;-73
2023/06/15 02:57:24;;;;;;;4.40;1.70;;;15.70;91.30;;;;;;5030643;28;20049;-73
2023/06/15 02:59:50;;;;;;;3.10;1.63;;;15.70;91.40;;;;;;5031693;28;20060;-74
2023/06/15 03:02:16;;;;;;;3.63;1.70;;;15.70;91.50;;;;;;5030642;28;20040;-74
2023/06/15 03:04:44;;;;;;;2.70;1.48;;;15.70;91.60;;;;;;5030625;28;20110;-74
2023/06/15 03:07:20;;;;;;;5.60;1.88;;;15.60;91.60;;;;;;5013868;28;20125;-73
2023/06/15 03:09:51;;;;;;;4.50;1.70;;;15.60;91.90;;;;;;5030173;28;20103;-73
2023/06/15 03:12:17;;;;;;;4.28;1.70;;;15.50;91.80;;;;;;5030241;28;20510;-73
2023/06/15 03:14:44;;;;;;;3.35;1.67;;;15.50;91.90;;;;;;5013321;28;20491;-73
2023/06/15 03:17:11;;;;;;;4.13;1.60;;;15.50;91.90;;;;;;5030434;28;20076;-73
2023/06/15 03:19:36;;;;;;;5.63;1.73;;;15.40;91.90;;;;;;5030241;28;20065;-73
2023/06/15 03:22:03;;;;;;;2.97;1.40;;;15.50;92.00;;;;;;5029991;28;20037;-73
2023/06/15 03:24:30;;;;;;;2.25;1.30;;;15.40;92.00;;;;;;5030147;28;20068;-73
2023/06/15 03:26:57;;;;;;;2.63;1.27;;;15.40;92.00;;;;;;5030069;28;20495;-73
2023/06/15 03:29:26;;;;;;;3.22;1.40;;;15.30;92.10;;;;;;5030191;28;20487;-73
2023/06/15 03:31:52;;;;;;;3.05;1.40;;;15.40;92.10;;;;;;5029815;28;20051;-73
2023/06/15 03:34:18;;;;;;;2.88;1.42;;;15.40;92.10;;;;;;5029903;28;20041;-73
2023/06/15 03:36:45;;;;;;;3.22;1.60;;;15.30;92.20;;;;;;5013490;28;20275;-73
2023/06/15 03:39:11;;;;;;;2.78;1.60;;;15.20;92.30;;;;;;5029996;28;20041;-73
2023/06/15 03:41:37;;;;;;;2.92;1.63;;;15.20;92.50;;;;;;5029548;28;20041;-73
2023/06/15 03:44:03;;;;;;;3.28;1.65;;;15.20;92.60;;;;;;5029840;28;20052;-73
2023/06/15 03:46:29;;;;;;;3.78;1.63;;;15.20;92.70;;;;;;5029507;28;20070;-73
2023/06/15 03:48:55;;;;;;;4.13;1.63;;;15.20;92.70;;;;;;5029548;28;20042;-74
2023/06/15 03:51:20;;;;;;;3.03;1.80;;;15.20;92.80;;;;;;5013046;28;20077;-73
2023/06/15 03:53:46;;;;;;;3.20;1.70;;;15.20;92.90;;;;;;5029546;28;20044;-73
2023/06/15 03:56:12;;;;;;;5.70;1.98;;;15.10;92.90;;;;;;5029674;28;20045;-73
2023/06/15 03:58:37;;;;;;;3.65;1.52;;;15.10;93.00;;;;;;5029473;28;20067;-73
2023/06/15 04:01:04;;;;;;;5.22;1.88;;;15.10;93.10;;;;;;5029403;28;20442;-73
2023/06/15 04:03:34;;;;;;;4.20;2.15;;;15.10;93.10;;;;;;5013186;28;20403;-73
2023/06/15 04:06:01;;;;;;;3.38;1.70;;;15.20;93.20;;;;;;5013033;28;20115;-74
2023/06/15 04:08:27;;;;;;;5.88;1.73;;;15.10;93.20;;;;;;5029997;28;20045;-74
2023/06/15 04:10:52;;;;;;;3.75;1.40;;;15.10;93.40;;;;;;5012780;28;20049;-74
2023/06/15 04:13:18;;;;;;;4.13;1.90;;;15.10;93.50;;;;;;5029258;28;20043;-74
2023/06/15 04:15:44;;;;;;;5.78;1.58;;;15.10;93.60;;;;;;5030807;28;20120;-74
2023/06/15 04:18:09;;;;;;;3.67;2.08;;;15.10;93.80;;;;;;5012737;28;20490;-74
2023/06/15 04:20:36;;;;;;;3.20;1.70;;;15.00;94.00;;;;;;5029294;28;20452;-74
2023/06/15 04:23:01;;;;;;;3.58;2.00;;;15.10;94.00;;;;;;5029294;28;20078;-74
2023/06/15 04:25:28;;;;;;;3.50;1.63;;;15.20;94.00;;;;;;5012471;28;20045;-74
2023/06/15 04:27:55;;;;;;;6.97;2.10;;;15.20;94.00;;;;;;5030502;28;20045;-74
2023/06/15 04:30:24;;;;;;;4.95;1.77;;;15.20;94.00;;;;;;5029098;28;20446;-73
2023/06/15 04:32:59;;;;;;;3.58;1.95;;;15.20;94.10;;;;;;5029090;28;20034;-73
2023/06/15 04:35:28;;;;;;;3.95;2.08;;;15.30;94.20;;;;;;5012912;28;20369;-74
2023/06/15 04:37:58;;;;;;;4.03;1.75;;;15.30;94.30;;;;;;5029252;28;20046;-74
2023/06/15 04:40:24;;;;;;;5.03;2.03;;;15.40;94.30;;;;;;5028964;28;20041;-74
2023/06/15 04:42:50;;;;;;;3.55;2.03;;;15.30;94.40;;;;;;5028906;28;20068;-74
2023/06/15 04:45:16;;;;;;;3.53;1.70;;;15.40;94.50;;;;;;5012364;28;20051;-74
2023/06/15 04:47:42;;;;;;;3.53;1.83;;;15.40;94.50;;;;;;5029137;28;20120;-74
2023/06/15 04:50:09;;;;;;;4.10;2.00;;;15.40;94.60;;;;;;5029195;28;20488;-74
2023/06/15 04:52:34;;;;;;;4.35;2.15;;;15.50;94.80;;;;;;5028781;28;20033;-74
2023/06/15 04:55:00;;;;;;;5.68;1.88;;;15.50;94.90;;;;;;5028889;28;20107;-75
2023/06/15 04:57:28;;;;;;;2.80;1.58;;;15.50;94.90;;;;;;5013107;28;20049;-74
2023/06/15 04:59:54;;;;;;;4.28;1.92;;;15.60;95.10;;;;;;5030413;28;20099;-74
2023/06/15 05:02:20;;;;;;;3.63;1.98;;;15.60;95.10;;;;;;5028766;28;20049;-74
2023/06/15 05:04:46;;;;;;;4.63;1.92;;;15.70;95.20;;;;;;5012560;28;20041;-74
2023/06/15 05:07:12;;;;;;;4.00;1.98;;;15.70;95.30;;;;;;5029064;28;20557;-74
2023/06/15 05:09:37;;;;;;;3.60;1.95;;;15.80;95.40;;;;;;5012345;28;20133;-74
2023/06/15 05:12:03;;;;;;;5.05;1.60;;;15.80;95.60;;;;;;5029926;28;20041;-74
2023/06/15 05:14:29;;;;;;;3.42;1.65;;;15.80;95.60;;;;;;5029788;28;20132;-74
2023/06/15 05:16:54;;;;;;;3.63;1.80;;;15.90;95.80;;;;;;5012351;28;20191;-74
2023/06/15 05:19:20;;;;;;;3.35;1.80;;;15.90;95.90;;;;;;5029066;28;20108;-74
2023/06/15 05:21:49;;;;;;;3.42;1.63;;;15.90;95.70;;;;;;5028855;28;20060;-74
2023/06/15 05:24:15;;;;;;;4.38;1.60;;;15.90;95.70;;;;;;5012134;28;20064;-74
2023/06/15 05:26:40;;;;;;;2.83;1.30;;;16.00;95.40;;;;;;5012273;28;20045;-74
2023/06/15 05:29:06;;;;;;;4.22;1.40;;;16.00;95.10;;;;;;5028424;28;20060;-74
2023/06/15 05:31:32;;;;;;;4.65;1.63;;;16.10;95.30;;;;;;5012097;28;20187;-74
2023/06/15 05:33:58;;;;;;;3.60;1.80;;;16.10;95.20;;;;;;5012379;28;20033;-74
2023/06/15 05:36:30;;;;;;;3.67;1.90;;;16.20;95.10;;;;;;5029571;28;20509;-74
2023/06/15 05:38:56;;;;;;;7.38;1.45;;;16.20;95.00;;;;;;5032203;28;20514;-74
2023/06/15 05:41:22;;;;;;;3.20;1.33;;;16.20;94.90;;;;;;5015326;28;20073;-74
2023/06/15 05:43:47;;;;;;;2.97;1.20;;;16.20;94.70;;;;;;5015457;28;20138;-74
2023/06/15 05:46:13;;;;;;;3.00;1.38;;;16.30;94.80;;;;;;5032021;28;20041;-74
2023/06/15 05:48:38;;;;;;;2.15;1.13;;;16.30;94.60;;;;;;5031867;28;20037;-74
2023/06/15 05:51:04;;;;;;;3.60;1.30;;;16.40;94.60;;;;;;5031957;28;20037;-74
2023/06/15 05:53:30;;;;;;;3.88;1.33;;;16.40;94.40;;;;;;5032039;28;20128;-74
2023/06/15 05:55:56;;;;;;;3.95;1.40;;;16.50;94.20;;;;;;5015583;28;20479;-74
2023/06/15 05:58:21;;;;;;;5.05;1.30;;;16.50;93.90;;;;;;5031462;28;20041;-74
2023/06/15 06:00:47;;;;;;;4.13;1.42;;;16.50;93.70;;;;;;5015560;28;20103;-74
2023/06/15 06:03:12;;;;;;;2.58;1.05;;;16.50;93.60;;;;;;5015516;28;20056;-74
2023/06/15 06:05:38;;;;;;;4.50;1.05;;;16.60;93.40;;;;;;5031610;28;20083;-74
2023/06/15 06:08:04;;;;;;;3.22;1.20;;;16.60;93.30;;;;;;5031990;28;20052;-74
2023/06/15 06:10:30;;;;;;;3.28;1.25;;;16.60;92.80;;;;;;5015214;28;20552;-74
2023/06/15 06:12:55;;;;;;;2.95;1.13;;;16.70;92.50;;;;;;5031442;28;20137;-74
2023/06/15 06:15:21;;;;;;;2.03;1.17;;;16.80;92.30;;;;;;5031459;28;20045;-74
2023/06/15 06:17:47;;;;;;;3.35;1.48;;;16.80;92.00;;;;;;5032800;28;20037;-74
2023/06/15 06:20:12;;;;;;;3.03;1.20;;;16.80;91.80;;;;;;5031501;28;20037;-74
2023/06/15 06:22:38;;;;;;;3.20;0.90;;;16.90;91.40;;;;;;5031226;28;20052;-74
2023/06/15 06:25:04;;;;;;;3.13;1.05;;;16.90;91.30;;;;;;5031052;28;20060;-74
2023/06/15 06:27:30;;;;;;;5.53;1.20;;;17.00;91.10;;;;;;5030852;28;20067;-74
2023/06/15 06:29:58;;;;;;;3.08;1.20;;;17.10;90.90;;;;;;5032661;28;20042;-74
2023/06/15 06:32:23;;;;;;;2.30;1.17;;;17.20;90.80;;;;;;5014422;28;20044;-73
2023/06/15 06:34:49;;;;;;;3.25;1.27;;;17.70;90.80;;;;;;5014668;28;20037;-74
2023/06/15 06:37:14;;;;;;;2.97;1.13;;;18.90;89.00;;;;;;5031116;28;20048;-74
2023/06/15 06:39:40;;;;;;;4.28;1.20;;;20.40;83.40;;;;;;5031113;28;20084;-73
2023/06/15 06:42:06;;;;;;;4.07;1.20;;;21.70;78.60;;;;;;5030990;28;20041;-74
2023/06/15 06:44:31;;;;;;;2.45;1.00;;;22.90;75.50;;;;;;5030768;28;20046;-74
2023/06/15 06:46:57;;;;;;;3.42;1.20;;;24.00;71.50;;;;;;5030846;28;20034;-74
2023/06/15 06:49:23;;;;;;;1.83;1.00;;;24.70;67.50;;;;;;5030764;28;20526;-74
2023/06/15 06:51:48;;;;;;;2.65;1.38;;;25.10;64.60;;;;;;5014313;28;20037;-74
2023/06/15 06:54:14;;;;;;;2.22;1.30;;;24.80;64.30;;;;;;5030972;28;20038;-74
2023/06/15 06:56:39;;;;;;;2.95;0.98;;;24.10;65.10;;;;;;5013863;28;20483;-74
2023/06/15 06:59:05;;;;;;;3.13;1.10;;;23.50;66.30;;;;;;5030825;28;20060;-74
2023/06/15 07:01:31;;;;;;;4.07;1.30;;;22.90;67.20;;;;;;5030552;28;20041;-73
2023/06/15 07:03:56;;;;;;;2.47;1.13;;;22.50;67.40;;;;;;5030674;28;20482;-73
2023/06/15 07:06:22;;;;;;;3.55;1.20;;;22.10;67.80;;;;;;5030280;28;20128;-74
2023/06/15 07:08:48;;;;;;;5.55;1.70;;;21.80;67.90;;;;;;5030739;28;20044;-74
2023/06/15 07:11:14;;;;;;;4.20;1.35;;;21.40;67.80;;;;;;5030668;28;20044;-74
2023/06/15 07:13:40;;;;;;;4.30;1.60;;;21.10;67.80;;;;;;5013792;28;20049;-74
2023/06/15 07:16:06;;;;;;;4.07;1.10;;;20.90;67.70;;;;;;5030696;28;20049;-74
2023/06/15 07:18:32;;;;;;;2.85;1.30;;;20.80;67.60;;;;;;5030226;28;20522;-74
2023/06/15 07:20:58;;;;;;;2.95;1.13;;;20.60;67.60;;;;;;5030523;28;20053;-74
2023/06/15 07:23:24;;;;;;;3.53;1.08;;;20.50;67.80;;;;;;5013473;28;20045;-74
2023/06/15 07:25:51;;;;;;;1.70;0.95;;;20.40;67.70;;;;;;5013300;28;20046;-74
2023/06/15 07:28:17;;;;;;;2.35;1.17;;;20.30;67.50;;;;;;5030184;28;20093;-74
2023/06/15 07:30:44;;;;;;;3.42;1.65;;;20.30;67.80;;;;;;5013506;28;20045;-74
2023/06/15 07:33:10;;;;;;;2.47;1.33;;;20.20;67.60;;;;;;5013596;28;20064;-74
2023/06/15 07:35:36;;;;;;;2.10;1.20;;;20.20;67.50;;;;;;5029819;28;20083;-74
2023/06/15 07:38:01;;;;;;;4.00;1.40;;;20.10;67.60;;;;;;5029935;28;20135;-74
2023/06/15 07:40:27;;;;;;;3.28;1.20;;;20.00;67.40;;;;;;5013423;28;20048;-74
2023/06/15 07:42:53;;;;;;;3.53;1.00;;;20.10;66.90;;;;;;5029755;28;20495;-74
2023/06/15 07:45:18;;;;;;;3.78;0.98;;;20.10;66.90;;;;;;5013300;28;20053;-74
2023/06/15 07:47:44;;;;;;;3.45;1.40;;;20.00;66.90;;;;;;5029835;28;20124;-74
2023/06/15 07:50:10;;;;;;;2.35;1.20;;;20.00;66.60;;;;;;5013667;28;20045;-74
2023/06/15 07:52:35;;;;;;;3.10;1.25;;;20.00;66.40;;;;;;5029714;28;20124;-74
2023/06/15 07:55:01;;;;;;;5.32;1.20;;;20.00;66.10;;;;;;5029411;28;20087;-74
2023/06/15 07:57:26;;;;;;;3.08;1.17;;;20.00;65.60;;;;;;5029862;28;20055;-74
2023/06/15 07:59:52;;;;;;;4.72;1.45;;;20.00;65.20;;;;;;5012758;28;20128;-74
2023/06/15 08:02:18;;;;;;;3.95;1.20;;;20.00;65.00;;;;;;5013256;28;20077;-74
2023/06/15 08:04:44;;;;;;;4.80;1.25;;;20.00;65.30;;;;;;5029423;28;20483;-74
2023/06/15 08:07:10;;;;;;;4.85;1.42;;;20.00;65.30;;;;;;5013229;28;20063;-74
2023/06/15 08:09:35;;;;;;;2.38;1.00;;;20.00;65.30;;;;;;5012850;28;20368;-74
2023/06/15 08:12:01;;;;;;;4.22;1.20;;;20.00;65.20;;;;;;5013008;28;20348;-73
2023/06/15 08:14:27;;;;;;;2.97;1.30;;;20.10;64.30;;;;;;5012813;28;20099;-74
2023/06/15 08:16:53;;;;;;;3.55;0.95;;;20.00;63.60;;;;;;5029395;28;20088;-74
2023/06/15 08:19:18;;;;;;;2.97;1.25;;;20.20;63.30;;;;;;5029253;28;20064;-74
2023/06/15 08:21:44;;;;;;;2.67;1.15;;;20.20;63.10;;;;;;5012932;28;20061;-74
2023/06/15 08:24:10;;;;;;;5.88;1.33;;;20.20;62.80;;;;;;5012294;28;20053;-74
2023/06/15 08:26:35;;;;;;;3.00;1.13;;;20.30;62.50;;;;;;5012674;28;20383;-74
2023/06/15 08:29:01;;;;;;;3.05;1.40;;;20.30;62.40;;;;;;5029190;28;20045;-73
2023/06/15 08:31:28;;;;;;;4.72;1.25;;;20.30;62.00;;;;;;5012632;28;20087;-74
2023/06/15 08:33:54;;;;;;;5.40;1.58;;;20.40;61.70;;;;;;5028946;28;20509;-74
2023/06/15 08:36:20;;;;;;;6.38;1.42;;;20.40;61.50;;;;;;5029052;28;20069;-74
2023/06/15 08:38:45;;;;;;;2.53;1.05;;;20.40;61.20;;;;;;5029167;28;20131;-74
2023/06/15 08:41:11;;;;;;;2.42;0.95;;;20.40;60.90;;;;;;5029330;28;20052;-74
2023/06/15 08:43:40;;;;;;;5.63;1.25;;;20.50;61.10;;;;;;5012446;28;20502;-74
2023/06/15 08:46:06;;;;;;;2.83;1.08;;;20.50;60.60;;;;;;5029107;28;20037;-74
2023/06/15 08:48:32;;;;;;;2.20;0.95;;;20.50;60.20;;;;;;5029319;28;20372;-74
2023/06/15 08:50:59;;;;;;;2.60;1.20;;;20.50;60.10;;;;;;5029162;28;20033;-74
2023/06/15 08:53:27;;;;;;;4.40;1.20;;;20.50;59.80;;;;;;5012226;28;20034;-75
2023/06/15 08:55:52;;;;;;;2.75;1.00;;;20.50;60.00;;;;;;5012637;28;20048;-74
2023/06/15 08:58:18;;;;;;;2.78;1.05;;;20.50;60.00;;;;;;5028902;28;20045;-74
2023/06/15 09:00:44;;;;;;;4.22;1.20;;;20.50;60.20;;;;;;5029350;28;20133;-75
2023/06/15 09:03:11;;;;;;;2.58;1.15;;;20.60;60.50;;;;;;5012402;28;20045;-75
2023/06/15 09:05:36;;;;;;;1.83;0.98;;;20.60;60.20;;;;;;5029913;28;20047;-74
2023/06/15 09:08:03;;;;;;;2.75;1.00;;;20.70;60.00;;;;;;5029862;28;20476;-74
2023/06/15 09:10:29;;;;;;;2.92;1.00;;;20.70;59.20;;;;;;5028885;28;20242;-74
2023/06/15 09:12:57;;;;;;;2.53;1.10;;;20.70;59.10;;;;;;5032045;28;20037;-74
2023/06/15 09:15:24;;;;;;;1.83;1.00;;;20.80;58.90;;;;;;5032382;28;20042;-74
2023/06/15 09:17:55;;;;;;;2.90;1.10;;;20.80;58.70;;;;;;5032929;28;20075;-74
2023/06/15 09:20:23;;;;;;;2.50;1.15;;;20.80;58.60;;;;;;5015774;28;20073;-74
2023/06/15 09:22:48;;;;;;;3.95;1.45;;;20.80;58.40;;;;;;5032378;28;20053;-74
2023/06/15 09:25:19;;;;;;;1.98;1.02;;;20.90;58.40;;;;;;5032165;28;20433;-74
2023/06/15 09:28:00;;;;;;;2.83;1.40;;;20.90;58.00;;;;;;5016162;28;20056;-74
2023/06/15 09:30:36;;;;;;;3.40;1.40;;;21.00;57.40;;;;;;5016200;28;20069;-74
2023/06/15 09:33:13;;;;;;;2.25;1.02;;;21.00;57.50;;;;;;5032232;28;20037;-74
2023/06/15 09:35:59;;;;;;;3.03;1.30;;;21.00;54.80;;;;;;5032011;28;20052;-74
2023/06/15 09:38:25;;;;;;;;;;;21.00;55.60;;;;;;5016123;28;20116;-74
2023/06/15 09:40:51;;;;;;;2.00;1.20;;;21.00;54.20;;;;;;5032264;28;19917;-74
2023/06/15 09:43:18;;;;;;;2.08;1.15;;;21.00;57.30;;;;;;5031959;28;20052;-74
2023/06/15 09:45:51;;;;;;;2.58;1.30;;;21.00;57.20;;;;;;5031928;28;20045;-74
2023/06/15 09:48:16;;;;;;;2.00;1.20;;;21.00;55.40;;;;;;5032269;28;20099;-74
2023/06/15 09:50:42;;;;;;;3.03;1.20;;;21.10;55.70;;;;;;5015679;28;20464;-73
2023/06/15 09:53:11;;;;;;;2.85;1.33;;;21.10;55.60;;;;;;5015346;28;20041;-73
2023/06/15 09:55:43;;;;;;;3.55;1.10;;;21.20;55.10;;;;;;5015152;28;20456;-73
2023/06/15 09:58:10;;;;;;;1.65;0.90;;;21.20;54.80;;;;;;5032960;28;20041;-73
2023/06/15 10:00:36;;;;;;;2.15;1.20;;;21.30;53.90;;;;;;5031882;28;20037;-73
2023/06/15 10:03:05;;;;;;;3.65;1.15;;;21.30;53.80;;;;;;5031993;28;20538;-73
2023/06/15 10:05:33;;;;;;;2.92;1.10;;;21.30;53.70;;;;;;5031660;28;20372;-74
2023/06/15 10:08:02;;;;;;;2.55;1.08;;;21.30;53.90;;;;;;5031712;28;20048;-74
2023/06/15 10:10:30;;;;;;;1.80;0.85;;;21.40;54.10;;;;;;5031316;28;20037;-73
2023/06/15 10:13:00;;;;;;;4.20;1.45;;;21.40;53.50;;;;;;5031492;28;20630;-74
2023/06/15 10:15:28;;;;;;;5.05;1.42;;;21.50;53.30;;;;;;5031287;28;20045;-74
2023/06/15 10:17:56;;;;;;;3.03;1.13;;;21.50;53.20;;;;;;5031656;28;20061;-74
2023/06/15 10:20:23;;;;;;;2.22;1.15;;;21.60;53.10;;;;;;5014858;28;20046;-74
2023/06/15 10:23:04;;;;;;;2.65;1.00;;;21.60;52.90;;;;;;5031068;28;20098;-74
2023/06/15 10:25:30;;;;;;;3.67;1.02;;;21.60;53.00;;;;;;5030811;28;20350;-74
2023/06/15 10:27:56;;;;;;;2.30;1.13;;;21.50;52.90;;;;;;5031106;28;20041;-74
2023/06/15 10:30:49;;;;;;;3.83;1.13;;;21.50;52.50;;;;;;5031143;28;20033;-74
2023/06/15 10:33:41;;;;;;;2.83;1.25;;;21.60;51.20;;;;;;5031492;28;20366;-74
2023/06/15 10:36:22;;;;;;;4.40;1.52;;;21.50;52.50;;;;;;5020235;28;20553;-74
2023/06/15 10:38:57;;;;;;;7.50;1.40;;;21.60;52.80;;;;;;5031044;28;20438;-74
2023/06/15 10:41:23;;;;;;;;;;;21.60;52.60;;;;;;5031600;28;20417;-74
2023/06/15 10:44:00;;;;;;;3.03;1.35;;;21.60;50.70;;;;;;5014158;28;20003;-74
2023/06/15 10:46:28;;;;;;;2.05;1.00;;;21.60;52.10;;;;;;5030651;28;20076;-74
2023/06/15 10:48:54;;;;;;;1.85;1.00;;;21.60;52.80;;;;;;5031088;28;20084;-74
2023/06/15 10:51:21;;;;;;;1.90;1.00;;;21.60;52.60;;;;;;5030680;28;20077;-74
2023/06/15 10:53:47;;;;;;;3.63;1.52;;;21.70;51.90;;;;;;5014172;28;20029;-74
2023/06/15 10:56:15;;;;;;;3.88;1.33;;;21.70;51.00;;;;;;5030528;28;20051;-75
2023/06/15 10:59:03;;;;;;;3.10;1.20;;;21.70;50.60;;;;;;5030909;28;20384;-74
2023/06/15 11:01:32;;;;;;;2.47;1.08;;;21.60;49.30;;;;;;5030448;28;20045;-74
2023/06/15 11:03:58;;;;;;;3.88;1.30;;;21.70;50.70;;;;;;5030521;28;20042;-74
2023/06/15 11:06:31;;;;;;;2.13;1.13;;;21.80;50.10;;;;;;5031594;28;20414;-75
2023/06/15 11:09:03;;;;;;;3.47;1.15;;;21.90;49.50;;;;;;5030236;28;20037;-75
2023/06/15 11:11:29;;;;;;;2.97;1.48;;;21.90;49.80;;;;;;5030407;28;20045;-74
2023/06/15 11:14:05;;;;;;;2.33;1.30;;;21.90;50.10;;;;;;5014301;28;20422;-74
2023/06/15 11:16:33;;;;;;;1.83;0.95;;;21.90;50.50;;;;;;5013737;28;20077;-74
2023/06/15 11:19:22;;;;;;;2.78;1.38;;;21.90;50.50;;;;;;5014077;28;20460;-74
2023/06/15 11:21:57;;;;;;;2.28;1.35;;;22.00;49.60;;;;;;5021266;28;20053;-75
2023/06/15 11:24:25;;;;;;;3.70;1.52;;;22.00;50.30;;;;;;5030094;28;20054;-75
2023/06/15 11:26:50;;;;;;;2.67;1.42;;;22.00;50.10;;;;;;5029820;28;20502;-74
2023/06/15 11:29:22;;;;;;;3.35;1.40;;;22.10;49.90;;;;;;5031431;28;20065;-74
2023/06/15 11:31:54;;;;;;;2.40;1.08;;;22.00;49.90;;;;;;5029896;28;20033;-74
2023/06/15 11:34:20;;;;;;;4.07;1.60;;;22.10;50.30;;;;;;5029456;28;20105;-75
2023/06/15 11:36:46;;;;;;;2.33;1.30;;;22.20;50.40;;;;;;5029854;28;20483;-75
2023/06/15 11:39:20;;;;;;;3.38;1.15;;;22.10;49.90;;;;;;5030400;28;20220;-75
2023/06/15 11:41:50;;;;;;;2.67;1.20;;;22.10;49.20;;;;;;5029759;28;20041;-75
2023/06/15 11:44:18;;;;;;;5.88;1.58;;;22.20;49.10;;;;;;5030073;28;20045;-75
2023/06/15 11:47:01;;;;;;;2.88;1.30;;;22.20;48.80;;;;;;5013204;28;20073;-75
2023/06/15 11:49:35;;;;;;;2.80;1.20;;;22.20;48.30;;;;;;5029700;28;20076;-74
2023/06/15 11:52:01;;;;;;;4.68;1.50;;;22.20;48.00;;;;;;5029734;28;20041;-74
2023/06/15 11:54:28;;;;;;;2.67;1.10;;;22.30;48.30;;;;;;5013124;28;20045;-75
2023/06/15 11:56:58;;;;;;;2.92;1.30;;;22.40;48.10;;;;;;5013051;28;20052;-74
2023/06/15 11:59:25;;;;;;;2.47;1.17;;;22.50;47.80;;;;;;5013215;28;20439;-74
2023/06/15 12:01:53;;;;;;;2.28;1.10;;;22.60;47.50;;;;;;5012996;28;20080;-75
2023/06/15 12:04:19;;;;;;;2.15;1.10;;;22.60;47.50;;;;;;5029561;28;20124;-75
2023/06/15 12:06:48;;;;;;;5.22;1.75;;;22.60;47.70;;;;;;5029611;28;20120;-74
2023/06/15 12:09:16;;;;;;;3.28;1.20;;;22.60;47.40;;;;;;5029423;28;20076;-74
2023/06/15 12:11:43;;;;;;;2.92;1.42;;;22.60;47.30;;;;;;5013096;28;20037;-74
2023/06/15 12:14:10;;;;;;;3.55;1.08;;;22.70;47.40;;;;;;5029344;28;20041;-74
2023/06/15 12:16:37;;;;;;;2.00;1.02;;;22.70;47.40;;;;;;5029405;28;20041;-74
2023/06/15 12:19:03;;;;;;;4.20;1.38;;;22.60;47.30;;;;;;5012909;28;20038;-74
2023/06/15 12:21:37;;;;;;;2.35;0.95;;;22.70;47.30;;;;;;5029241;28;20101;-74
2023/06/15 12:24:17;;;;;;;2.70;1.27;;;22.80;46.80;;;;;;5032288;28;20522;-74
2023/06/15 12:26:51;;;;;;;2.65;1.00;;;22.80;45.90;;;;;;5032456;28;20060;-74
2023/06/15 12:29:18;;;;;;;2.35;1.13;;;22.80;46.40;;;;;;5032398;28;20498;-74
2023/06/15 12:31:48;;;;;;;3.00;1.10;;;22.80;46.50;;;;;;5032600;28;20391;-74
2023/06/15 12:34:14;;;;;;;3.28;1.20;;;22.90;46.50;;;;;;5032446;28;20563;-74
2023/06/15 12:36:40;;;;;;;2.28;1.17;;;22.90;46.70;;;;;;5032436;28;20041;-74
2023/06/15 12:39:08;;;;;;;2.08;1.02;;;23.00;46.40;;;;;;5032629;28;20384;-74
2023/06/15 12:41:38;;;;;;;2.30;1.20;;;23.10;46.20;;;;;;5032516;28;20048;-75
2023/06/15 12:44:05;;;;;;;3.53;1.20;;;23.10;45.80;;;;;;5050138;28;20120;-75
2023/06/15 12:46:34;;;;;;;2.97;1.38;;;23.10;45.60;;;;;;5035183;28;20072;-75
2023/06/15 12:49:00;;;;;;;2.53;1.10;;;23.10;45.50;;;;;;5036096;28;20215;-75